sensor_id;sensor_type;location;lat;lon;timestamp;pressure;altitude;pressure_sealevel;temperature;humidity
25130;BME280;13308;50.860;13.664;2024-01-16T07:01:42;95670.81;;;-0.69;100.00
25130;BME280;13308;50.860;13.664;2024-01-16T07:04:09;95674.03;;;-0.57;100.00
25130;BME280;13308;50.860;13.664;2024-01-16T07:06:34;95689.09;;;-0.56;100.00
25130;BME280;13308;50.860;13.664;2024-01-16T07:09:00;95693.66;;;-0.67;100.00
25130;BME280;13308;50.860;13.664;2024-01-16T07:11:25;95695.56;;;-0.71;100.00
25130;BME280;13308;50.860;13.664;2024-01-16T07:13:50;95705.97;;;-0.73;100.00
25130;BME280;13308;50.860;13.664;2024-01-16T07:16:16;95702.81;;;-0.82;100.00
25130;BME280;13308;50.860;13.664;2024-01-16T07:18:41;95695.91;;;-0.76;100.00
25130;BME280;13308;50.860;13.664;2024-01-16T07:21:16;95714.41;;;-0.78;100.00
25130;BME280;13308;50.860;13.664;2024-01-16T07:23:42;95713.97;;;-0.87;100.00
25130;BME280;13308;50.860;13.664;2024-01-16T07:26:07;95725.13;;;-0.92;100.00
25130;BME280;13308;50.860;13.664;2024-01-16T07:28:33;95722.41;;;-0.92;100.00
25130;BME280;13308;50.860;13.664;2024-01-16T07:30:58;95724.44;;;-0.82;100.00
25130;BME280;13308;50.860;13.664;2024-01-16T07:33:23;95729.00;;;-0.89;100.00
25130;BME280;13308;50.860;13.664;2024-01-16T07:35:48;95736.75;;;-0.88;100.00
25130;BME280;13308;50.860;13.664;2024-01-16T07:38:14;95738.69;;;-0.88;100.00
25130;BME280;13308;50.860;13.664;2024-01-16T07:40:39;95732.13;;;-0.84;100.00
25130;BME280;13308;50.860;13.664;2024-01-16T07:43:04;95736.88;;;-0.74;100.00
25130;BME280;13308;50.860;13.664;2024-01-16T07:45:30;95744.50;;;-0.86;100.00
25130;BME280;13308;50.860;13.664;2024-01-16T07:47:55;95740.69;;;-0.82;100.00
25130;BME280;13308;50.860;13.664;2024-01-16T07:50:20;95748.81;;;-0.82;100.00
25130;BME280;13308;50.860;13.664;2024-01-16T07:52:46;95749.22;;;-0.76;100.00
25130;BME280;13308;50.860;13.664;2024-01-16T07:55:11;95750.75;;;-0.79;100.00
25130;BME280;13308;50.860;13.664;2024-01-16T07:57:36;95757.34;;;-0.76;100.00
25130;BME280;13308;50.860;13.664;2024-01-16T08:00:02;95766.25;;;-0.76;100.00
25130;BME280;13308;50.860;13.664;2024-01-16T08:02:33;95764.78;;;-0.70;100.00
25130;BME280;13308;50.860;13.664;2024-01-16T08:04:59;95772.47;;;-0.72;100.00
25130;BME280;13308;50.860;13.664;2024-01-16T08:07:24;95773.22;;;-0.75;100.00
25130;BME280;13308;50.860;13.664;2024-01-16T08:09:49;95770.19;;;-0.70;100.00
25130;BME280;13308;50.860;13.664;2024-01-16T08:12:15;95787.16;;;-0.73;100.00
25130;BME280;13308;50.860;13.664;2024-01-16T08:14:40;95783.38;;;-0.65;100.00
25130;BME280;13308;50.860;13.664;2024-01-16T08:17:06;95784.94;;;-0.64;100.00
25130;BME280;13308;50.860;13.664;2024-01-16T08:19:32;95791.91;;;-0.63;100.00
25130;BME280;13308;50.860;13.664;2024-01-16T08:21:57;95777.59;;;-0.63;100.00
25130;BME280;13308;50.860;13.664;2024-01-16T08:24:23;95786.09;;;-0.65;100.00
25130;BME280;13308;50.860;13.664;2024-01-16T08:26:49;95787.78;;;-0.50;100.00
25130;BME280;13308;50.860;13.664;2024-01-16T08:29:14;95779.69;;;-0.46;100.00
25130;BME280;13308;50.860;13.664;2024-01-16T08:31:40;95781.25;;;-0.42;100.00
25130;BME280;13308;50.860;13.664;2024-01-16T08:34:05;95785.97;;;-0.35;100.00
25130;BME280;13308;50.860;13.664;2024-01-16T08:36:31;95797.38;;;-0.56;100.00
25130;BME280;13308;50.860;13.664;2024-01-16T08:38:56;95785.75;;;-0.60;100.00
25130;BME280;13308;50.860;13.664;2024-01-16T08:41:21;95797.88;;;-0.47;100.00
25130;BME280;13308;50.860;13.664;2024-01-16T08:43:46;95795.88;;;-0.53;100.00
25130;BME280;13308;50.860;13.664;2024-01-16T08:46:13;95795.50;;;-0.52;100.00
25130;BME280;13308;50.860;13.664;2024-01-16T08:48:38;95796.66;;;-0.53;100.00
25130;BME280;13308;50.860;13.664;2024-01-16T08:51:07;95799.00;;;-0.48;100.00
25130;BME280;13308;50.860;13.664;2024-01-16T08:53:34;95809.03;;;-0.52;100.00
25130;BME280;13308;50.860;13.664;2024-01-16T08:55:59;95816.88;;;-0.43;100.00
25130;BME280;13308;50.860;13.664;2024-01-16T08:58:25;95810.59;;;-0.51;100.00
25130;BME280;13308;50.860;13.664;2024-01-16T09:00:50;95813.00;;;-0.42;100.00
25130;BME280;13308;50.860;13.664;2024-01-16T09:03:15;95813.03;;;-0.39;100.00
25130;BME280;13308;50.860;13.664;2024-01-16T09:05:41;95809.56;;;-0.36;100.00
25130;BME280;13308;50.860;13.664;2024-01-16T09:08:08;95813.03;;;-0.39;100.00
25130;BME280;13308;50.860;13.664;2024-01-16T09:10:39;95813.09;;;-0.32;100.00
25130;BME280;13308;50.860;13.664;2024-01-16T09:13:05;95819.94;;;-0.45;100.00
25130;BME280;13308;50.860;13.664;2024-01-16T09:15:30;95810.72;;;-0.37;100.00
25130;BME280;13308;50.860;13.664;2024-01-16T09:17:55;95816.06;;;-0.44;100.00
25130;BME280;13308;50.860;13.664;2024-01-16T09:20:21;95817.59;;;-0.46;100.00
25130;BME280;13308;50.860;13.664;2024-01-16T09:22:46;95822.16;;;-0.54;100.00
25130;BME280;13308;50.860;13.664;2024-01-16T09:25:11;95837.66;;;-0.51;100.00
25130;BME280;13308;50.860;13.664;2024-01-16T09:27:36;95827.22;;;-0.49;100.00
25130;BME280;13308;50.860;13.664;2024-01-16T09:30:04;95833.13;;;-0.40;100.00
25130;BME280;13308;50.860;13.664;2024-01-16T09:32:29;95828.19;;;-0.31;100.00
25130;BME280;13308;50.860;13.664;2024-01-16T09:34:54;95821.72;;;-0.19;100.00
25130;BME280;13308;50.860;13.664;2024-01-16T09:37:20;95831.16;;;-0.03;100.00
25130;BME280;13308;50.860;13.664;2024-01-16T09:39:45;95843.50;;;-0.09;100.00
25130;BME280;13308;50.860;13.664;2024-01-16T09:42:11;95834.22;;;-0.05;100.00
25130;BME280;13308;50.860;13.664;2024-01-16T09:44:36;95831.56;;;-0.01;100.00
25130;BME280;13308;50.860;13.664;2024-01-16T09:47:02;95833.53;;;0.02;100.00
25130;BME280;13308;50.860;13.664;2024-01-16T09:49:29;95827.34;;;0.05;100.00
25130;BME280;13308;50.860;13.664;2024-01-16T09:51:54;95830.19;;;0.76;100.00
25130;BME280;13308;50.860;13.664;2024-01-16T09:54:20;95835.22;;;0.74;100.00
25130;BME280;13308;50.860;13.664;2024-01-16T09:56:48;95838.09;;;0.41;100.00
25130;BME280;13308;50.860;13.664;2024-01-16T09:59:17;95828.34;;;0.30;100.00
25130;BME280;13308;50.860;13.664;2024-01-16T10:01:43;95827.63;;;0.43;100.00
25130;BME280;13308;50.860;13.664;2024-01-16T10:04:10;95837.00;;;0.53;100.00
25130;BME280;13308;50.860;13.664;2024-01-16T10:06:37;95830.13;;;0.66;100.00
25130;BME280;13308;50.860;13.664;2024-01-16T10:09:03;95832.50;;;0.78;100.00
25130;BME280;13308;50.860;13.664;2024-01-16T10:11:30;95834.78;;;0.69;100.00
25130;BME280;13308;50.860;13.664;2024-01-16T10:13:58;95843.47;;;0.99;100.00
25130;BME280;13308;50.860;13.664;2024-01-16T10:19:18;95845.03;;;1.07;100.00
25130;BME280;13308;50.860;13.664;2024-01-16T10:21:44;95834.97;;;1.04;100.00
25130;BME280;13308;50.860;13.664;2024-01-16T10:24:12;95845.78;;;0.93;99.58
25130;BME280;13308;50.860;13.664;2024-01-16T10:26:40;95837.81;;;0.57;100.00
25130;BME280;13308;50.860;13.664;2024-01-16T10:29:05;95846.88;;;0.85;100.00
25130;BME280;13308;50.860;13.664;2024-01-16T10:31:31;95839.13;;;0.84;100.00
25130;BME280;13308;50.860;13.664;2024-01-16T10:33:56;95842.53;;;0.67;100.00
25130;BME280;13308;50.860;13.664;2024-01-16T10:36:23;95847.84;;;0.53;100.00
25130;BME280;13308;50.860;13.664;2024-01-16T10:38:51;95834.78;;;0.69;100.00
25130;BME280;13308;50.860;13.664;2024-01-16T10:41:23;95834.75;;;0.62;100.00
25130;BME280;13308;50.860;13.664;2024-01-16T10:44:04;95842.94;;;0.76;100.00
25130;BME280;13308;50.860;13.664;2024-01-16T10:46:32;95845.00;;;0.93;100.00
25130;BME280;13308;50.860;13.664;2024-01-16T10:49:01;95847.34;;;0.98;100.00
25130;BME280;13308;50.860;13.664;2024-01-16T10:51:28;95846.63;;;1.08;100.00
25130;BME280;13308;50.860;13.664;2024-01-16T10:54:03;95845.00;;;1.00;100.00
25130;BME280;13308;50.860;13.664;2024-01-16T10:56:31;95847.28;;;0.84;100.00
25130;BME280;13308;50.860;13.664;2024-01-16T10:59:14;95847.75;;;0.39;100.00
25130;BME280;13308;50.860;13.664;2024-01-16T11:01:43;95850.97;;;0.55;100.00
25130;BME280;13308;50.860;13.664;2024-01-16T11:04:11;95843.81;;;0.29;100.00
25130;BME280;13308;50.860;13.664;2024-01-16T11:06:37;95846.31;;;0.59;100.00
25130;BME280;13308;50.860;13.664;2024-01-16T11:09:03;95840.47;;;0.50;100.00
25130;BME280;13308;50.860;13.664;2024-01-16T11:11:28;95839.78;;;0.60;100.00
25130;BME280;13308;50.860;13.664;2024-01-16T11:13:54;95839.19;;;0.33;100.00
25130;BME280;13308;50.860;13.664;2024-01-16T11:16:21;95840.19;;;0.65;100.00
25130;BME280;13308;50.860;13.664;2024-01-16T11:18:47;95841.00;;;0.73;100.00
25130;BME280;13308;50.860;13.664;2024-01-16T11:21:14;95828.97;;;0.67;100.00
25130;BME280;13308;50.860;13.664;2024-01-16T11:23:40;95837.06;;;0.60;100.00
25130;BME280;13308;50.860;13.664;2024-01-16T11:26:28;95826.28;;;0.74;100.00
25130;BME280;13308;50.860;13.664;2024-01-16T11:28:55;95828.63;;;0.75;100.00
25130;BME280;13308;50.860;13.664;2024-01-16T11:31:31;95834.91;;;0.93;100.00
25130;BME280;13308;50.860;13.664;2024-01-16T11:33:57;95838.06;;;1.02;100.00
25130;BME280;13308;50.860;13.664;2024-01-16T11:36:52;95837.97;;;0.85;99.83
25130;BME280;13308;50.860;13.664;2024-01-16T11:39:22;95832.88;;;0.73;100.00
25130;BME280;13308;50.860;13.664;2024-01-16T11:41:49;95829.34;;;0.65;100.00
25130;BME280;13308;50.860;13.664;2024-01-16T11:44:39;95838.63;;;0.61;100.00
25130;BME280;13308;50.860;13.664;2024-01-16T11:47:06;95823.75;;;0.44;100.00
25130;BME280;13308;50.860;13.664;2024-01-16T11:49:32;95826.22;;;0.63;100.00
25130;BME280;13308;50.860;13.664;2024-01-16T11:51:58;95831.88;;;1.05;100.00
25130;BME280;13308;50.860;13.664;2024-01-16T11:54:23;95831.94;;;1.23;100.00
25130;BME280;13308;50.860;13.664;2024-01-16T11:57:26;95833.31;;;0.89;98.67
25130;BME280;13308;50.860;13.664;2024-01-16T11:59:59;95838.03;;;0.99;99.14
25130;BME280;13308;50.860;13.664;2024-01-16T12:02:52;95838.22;;;1.41;98.30
25130;BME280;13308;50.860;13.664;2024-01-16T12:05:19;95848.34;;;1.61;95.41
25130;BME280;13308;50.860;13.664;2024-01-16T12:07:52;95848.44;;;1.93;93.75
25130;BME280;13308;50.860;13.664;2024-01-16T12:10:20;95845.31;;;1.91;93.06
25130;BME280;13308;50.860;13.664;2024-01-16T12:12:47;95832.84;;;1.69;94.78
25130;BME280;13308;50.860;13.664;2024-01-16T12:15:16;95850.59;;;1.35;94.82
25130;BME280;13308;50.860;13.664;2024-01-16T12:18:01;95834.28;;;1.28;95.44
25130;BME280;13308;50.860;13.664;2024-01-16T12:20:30;95835.47;;;1.34;96.51
25130;BME280;13308;50.860;13.664;2024-01-16T12:22:58;95834.69;;;1.33;97.48
25130;BME280;13308;50.860;13.664;2024-01-16T12:25:25;95831.09;;;1.05;97.47
25130;BME280;13308;50.860;13.664;2024-01-16T12:27:55;95833.75;;;0.91;100.00
25130;BME280;13308;50.860;13.664;2024-01-16T12:30:23;95830.91;;;0.73;100.00
25130;BME280;13308;50.860;13.664;2024-01-16T12:33:08;95828.59;;;0.72;100.00
25130;BME280;13308;50.860;13.664;2024-01-16T12:35:39;95831.75;;;0.81;100.00
25130;BME280;13308;50.860;13.664;2024-01-16T12:38:10;95834.06;;;0.79;100.00
25130;BME280;13308;50.860;13.664;2024-01-16T12:40:39;95832.88;;;0.73;100.00
25130;BME280;13308;50.860;13.664;2024-01-16T12:43:08;95832.56;;;0.85;100.00
25130;BME280;13308;50.860;13.664;2024-01-16T12:45:36;95830.25;;;0.94;100.00
25130;BME280;13308;50.860;13.664;2024-01-16T12:48:02;95820.91;;;0.84;99.99
25130;BME280;13308;50.860;13.664;2024-01-16T12:50:32;95816.63;;;0.83;100.00
25130;BME280;13308;50.860;13.664;2024-01-16T12:53:08;95813.09;;;0.76;99.99
25130;BME280;13308;50.860;13.664;2024-01-16T12:55:36;95813.78;;;0.59;100.00
25130;BME280;13308;50.860;13.664;2024-01-16T12:58:18;95807.66;;;0.69;100.00
25130;BME280;13308;50.860;13.664;2024-01-16T13:00:48;95803.78;;;0.73;100.00
25130;BME280;13308;50.860;13.664;2024-01-16T13:03:21;95806.97;;;0.89;100.00
25130;BME280;13308;50.860;13.664;2024-01-16T13:05:56;95806.91;;;0.72;99.95
25130;BME280;13308;50.860;13.664;2024-01-16T13:08:22;95814.97;;;0.65;100.00
25130;BME280;13308;50.860;13.664;2024-01-16T13:11:03;95808.41;;;0.66;100.00
25130;BME280;13308;50.860;13.664;2024-01-16T13:13:29;95805.25;;;0.57;100.00
25130;BME280;13308;50.860;13.664;2024-01-16T13:15:54;95813.84;;;0.66;100.00
25130;BME280;13308;50.860;13.664;2024-01-16T13:18:21;95801.31;;;0.47;100.00
25130;BME280;13308;50.860;13.664;2024-01-16T13:20:50;95809.59;;;0.68;100.00
25130;BME280;13308;50.860;13.664;2024-01-16T13:23:16;95813.91;;;0.76;100.00
25130;BME280;13308;50.860;13.664;2024-01-16T13:25:46;95808.47;;;0.76;100.00
25130;BME280;13308;50.860;13.664;2024-01-16T13:28:16;95804.94;;;0.69;99.34
25130;BME280;13308;50.860;13.664;2024-01-16T13:30:42;95806.13;;;0.75;99.09
25130;BME280;13308;50.860;13.664;2024-01-16T13:33:08;95799.16;;;0.74;100.00
25130;BME280;13308;50.860;13.664;2024-01-16T13:35:41;95803.78;;;0.73;99.97
25130;BME280;13308;50.860;13.664;2024-01-16T13:38:07;95808.50;;;0.87;100.00
25130;BME280;13308;50.860;13.664;2024-01-16T13:40:33;95798.44;;;0.87;99.22
25130;BME280;13308;50.860;13.664;2024-01-16T13:42:59;95807.78;;;0.97;98.72
25130;BME280;13308;50.860;13.664;2024-01-16T13:45:25;95808.78;;;1.78;95.60
25130;BME280;13308;50.860;13.664;2024-01-16T13:47:51;95816.56;;;2.53;91.81
25130;BME280;13308;50.860;13.664;2024-01-16T13:50:16;95810.97;;;3.09;87.62
25130;BME280;13308;50.860;13.664;2024-01-16T13:52:43;95815.13;;;3.48;83.37
25130;BME280;13308;50.860;13.664;2024-01-16T13:55:08;95819.72;;;4.20;79.82
25130;BME280;13308;50.860;13.664;2024-01-16T13:57:34;95823.72;;;4.05;77.56
25130;BME280;13308;50.860;13.664;2024-01-16T14:00:03;95830.03;;;3.95;76.18
25130;BME280;13308;50.860;13.664;2024-01-16T14:02:37;95835.56;;;3.77;76.68
25130;BME280;13308;50.860;13.664;2024-01-16T14:05:04;95826.50;;;3.22;78.18
25130;BME280;13308;50.860;13.664;2024-01-16T14:07:31;95824.88;;;3.39;79.42
25130;BME280;13308;50.860;13.664;2024-01-16T14:09:56;95829.19;;;3.29;78.42
25130;BME280;13308;50.860;13.664;2024-01-16T14:12:22;95821.19;;;3.77;76.05
25130;BME280;13308;50.860;13.664;2024-01-16T14:14:48;95821.31;;;4.14;73.37
25130;BME280;13308;50.860;13.664;2024-01-16T14:17:13;95820.72;;;3.03;76.19
25130;BME280;13308;50.860;13.664;2024-01-16T14:19:38;95823.56;;;2.47;78.65
25130;BME280;13308;50.860;13.664;2024-01-16T14:22:04;95821.25;;;1.82;81.65
25130;BME280;13308;50.860;13.664;2024-01-16T14:24:29;95816.47;;;1.34;85.15
25130;BME280;13308;50.860;13.664;2024-01-16T14:26:55;95816.75;;;1.08;88.78
25130;BME280;13308;50.860;13.664;2024-01-16T14:29:22;95803.78;;;0.73;89.72
25130;BME280;13308;50.860;13.664;2024-01-16T14:31:48;95806.03;;;0.54;91.75
25130;BME280;13308;50.860;13.664;2024-01-16T14:34:14;95803.56;;;0.35;93.80
25130;BME280;13308;50.860;13.664;2024-01-16T14:36:40;95785.63;;;0.16;94.32
25130;BME280;13308;50.860;13.664;2024-01-16T14:39:06;95791.78;;;0.10;95.79
25130;BME280;13308;50.860;13.664;2024-01-16T14:41:34;95796.75;;;0.01;96.31
25130;BME280;13308;50.860;13.664;2024-01-16T14:44:00;95803.16;;;-0.17;97.09
25130;BME280;13308;50.860;13.664;2024-01-16T14:46:25;95798.50;;;-0.20;98.11
25130;BME280;13308;50.860;13.664;2024-01-16T14:48:51;95804.63;;;-0.27;99.22
25130;BME280;13308;50.860;13.664;2024-01-16T14:51:16;95802.38;;;-0.18;98.75
25130;BME280;13308;50.860;13.664;2024-01-16T14:53:42;95804.56;;;-0.34;100.00
25130;BME280;13308;50.860;13.664;2024-01-16T14:56:07;95802.19;;;-0.39;100.00
25130;BME280;13308;50.860;13.664;2024-01-16T14:58:33;95788.25;;;-0.41;100.00
25130;BME280;13308;50.860;13.664;2024-01-16T15:00:58;95785.88;;;-0.49;100.00
25130;BME280;13308;50.860;13.664;2024-01-16T15:03:24;95784.63;;;-0.59;100.00
25130;BME280;13308;50.860;13.664;2024-01-16T15:05:50;95786.50;;;-0.63;100.00
25130;BME280;13308;50.860;13.664;2024-01-16T15:08:17;95788.88;;;-0.58;100.00
25130;BME280;13308;50.860;13.664;2024-01-16T15:10:43;95781.53;;;-0.54;100.00
25130;BME280;13308;50.860;13.664;2024-01-16T15:13:08;95793.91;;;-0.56;100.00
25130;BME280;13308;50.860;13.664;2024-01-16T15:15:34;95802.03;;;-0.56;100.00
25130;BME280;13308;50.860;13.664;2024-01-16T15:17:59;95798.16;;;-0.59;100.00
25130;BME280;13308;50.860;13.664;2024-01-16T15:20:25;95795.84;;;-0.57;100.00
25130;BME280;13308;50.860;13.664;2024-01-16T15:22:50;95793.50;;;-0.58;100.00
25130;BME280;13308;50.860;13.664;2024-01-16T15:25:18;95797.38;;;-0.56;100.00
25130;BME280;13308;50.860;13.664;2024-01-16T15:27:47;95800.50;;;-0.54;100.00
25130;BME280;13308;50.860;13.664;2024-01-16T15:30:14;95801.31;;;-0.50;100.00
25130;BME280;13308;50.860;13.664;2024-01-16T15:32:39;95804.03;;;-0.50;100.00
25130;BME280;13308;50.860;13.664;2024-01-16T15:35:05;95795.16;;;-0.47;100.00
25130;BME280;13308;50.860;13.664;2024-01-16T15:37:34;95790.44;;;-0.53;100.00
25130;BME280;13308;50.860;13.664;2024-01-16T15:39:59;95794.31;;;-0.54;100.00
25130;BME280;13308;50.860;13.664;2024-01-16T15:42:26;95807.50;;;-0.53;100.00
25130;BME280;13308;50.860;13.664;2024-01-16T15:44:54;95802.84;;;-0.52;100.00
25130;BME280;13308;50.860;13.664;2024-01-16T15:47:20;95805.97;;;-0.50;100.00
25130;BME280;13308;50.860;13.664;2024-01-16T15:49:45;95790.41;;;-0.57;100.00
25130;BME280;13308;50.860;13.664;2024-01-16T15:52:12;95795.81;;;-0.60;100.00
25130;BME280;13308;50.860;13.664;2024-01-16T15:54:37;95803.56;;;-0.59;100.00
25130;BME280;13308;50.860;13.664;2024-01-16T15:57:03;95799.69;;;-0.58;100.00
25130;BME280;13308;50.860;13.664;2024-01-16T15:59:29;95802.72;;;-0.63;100.00
25130;BME280;13308;50.860;13.664;2024-01-16T16:01:54;95804.22;;;-0.69;100.00
25130;BME280;13308;50.860;13.664;2024-01-16T16:04:19;95798.81;;;-0.69;100.00
25130;BME280;13308;50.860;13.664;2024-01-16T16:06:45;95800.28;;;-0.75;100.00
25130;BME280;13308;50.860;13.664;2024-01-16T16:09:10;95799.50;;;-0.75;100.00
25130;BME280;13308;50.860;13.664;2024-01-16T16:11:37;95808.81;;;-0.73;100.00
25130;BME280;13308;50.860;13.664;2024-01-16T16:14:13;95804.94;;;-0.72;100.00
25130;BME280;13308;50.860;13.664;2024-01-16T16:16:39;95806.16;;;-0.66;100.00
25130;BME280;13308;50.860;13.664;2024-01-16T16:19:05;95806.88;;;-0.72;100.00
25130;BME280;13308;50.860;13.664;2024-01-16T16:21:31;95811.19;;;-0.68;100.00
25130;BME280;13308;50.860;13.664;2024-01-16T16:23:57;95817.44;;;-0.64;100.00
25130;BME280;13308;50.860;13.664;2024-01-16T16:26:36;95812.75;;;-0.67;100.00
25130;BME280;13308;50.860;13.664;2024-01-16T16:29:08;95817.72;;;-0.72;100.00
25130;BME280;13308;50.860;13.664;2024-01-16T16:31:38;95812.78;;;-0.63;100.00
25130;BME280;13308;50.860;13.664;2024-01-16T16:34:22;95815.41;;;-0.70;100.00
25130;BME280;13308;50.860;13.664;2024-01-16T16:36:47;95819.31;;;-0.68;100.00
25130;BME280;13308;50.860;13.664;2024-01-16T16:39:13;95822.78;;;-0.71;100.00
25130;BME280;13308;50.860;13.664;2024-01-16T16:41:41;95827.38;;;-0.71;100.00
25130;BME280;13308;50.860;13.664;2024-01-16T16:44:07;95828.84;;;-0.81;100.00
25130;BME280;13308;50.860;13.664;2024-01-16T16:46:32;95831.97;;;-0.75;100.00
25130;BME280;13308;50.860;13.664;2024-01-16T16:48:58;95832.75;;;-0.75;100.00
25130;BME280;13308;50.860;13.664;2024-01-16T16:51:24;95830.81;;;-0.74;100.00
25130;BME280;13308;50.860;13.664;2024-01-16T16:53:52;95835.06;;;-0.77;100.00
25130;BME280;13308;50.860;13.664;2024-01-16T16:56:19;95837.41;;;-0.72;100.00
25130;BME280;13308;50.860;13.664;2024-01-16T16:58:50;95842.81;;;-0.75;100.00
25130;BME280;13308;50.860;13.664;2024-01-16T17:01:16;95834.66;;;-0.79;100.00
25130;BME280;13308;50.860;13.664;2024-01-16T17:03:43;95833.91;;;-0.76;100.00
25130;BME280;13308;50.860;13.664;2024-01-16T17:06:10;95822.81;;;-0.67;100.00
25130;BME280;13308;50.860;13.664;2024-01-16T17:08:36;95832.44;;;-0.70;100.00
25130;BME280;13308;50.860;13.664;2024-01-16T17:11:03;95831.34;;;-0.62;100.00
25130;BME280;13308;50.860;13.664;2024-01-16T17:13:31;95831.44;;;-0.55;100.00
25130;BME280;13308;50.860;13.664;2024-01-16T17:15:56;95839.16;;;-0.57;100.00
25130;BME280;13308;50.860;13.664;2024-01-16T17:18:22;95835.63;;;-0.61;100.00
25130;BME280;13308;50.860;13.664;2024-01-16T17:20:47;95829.81;;;-0.63;100.00
25130;BME280;13308;50.860;13.664;2024-01-16T17:23:12;95832.13;;;-0.65;100.00
25130;BME280;13308;50.860;13.664;2024-01-16T17:25:38;95830.97;;;-0.64;100.00
25130;BME280;13308;50.860;13.664;2024-01-16T17:28:04;95839.88;;;-0.60;100.00
25130;BME280;13308;50.860;13.664;2024-01-16T17:30:30;95844.25;;;-0.52;100.00
25130;BME280;13308;50.860;13.664;2024-01-16T17:32:55;95838.34;;;-0.57;100.00
25130;BME280;13308;50.860;13.664;2024-01-16T17:35:20;95844.91;;;-0.62;100.00
25130;BME280;13308;50.860;13.664;2024-01-16T17:37:47;95841.03;;;-0.61;100.00
25130;BME280;13308;50.860;13.664;2024-01-16T17:40:13;95850.78;;;-0.56;100.00
25130;BME280;13308;50.860;13.664;2024-01-16T17:42:39;95844.56;;;-0.57;100.00
25130;BME280;13308;50.860;13.664;2024-01-16T17:45:05;95841.06;;;-0.57;100.00
25130;BME280;13308;50.860;13.664;2024-01-16T17:47:32;95845.25;;;-0.63;100.00
25130;BME280;13308;50.860;13.664;2024-01-16T17:49:57;95852.94;;;-0.69;100.00
25130;BME280;13308;50.860;13.664;2024-01-16T17:52:23;95857.16;;;-0.71;100.00
25130;BME280;13308;50.860;13.664;2024-01-16T17:54:48;95843.69;;;-0.64;100.00
25130;BME280;13308;50.860;13.664;2024-01-16T17:57:14;95846.00;;;-0.66;100.00
25130;BME280;13308;50.860;13.664;2024-01-16T17:59:41;95845.25;;;-0.63;100.00
25130;BME280;13308;50.860;13.664;2024-01-16T18:02:06;95846.72;;;-0.69;100.00
25130;BME280;13308;50.860;13.664;2024-01-16T18:04:35;95841.72;;;-0.71;100.00
25130;BME280;13308;50.860;13.664;2024-01-16T18:07:03;95840.38;;;-0.84;100.00
25130;BME280;13308;50.860;13.664;2024-01-16T18:09:29;95841.06;;;-0.94;100.00
25130;BME280;13308;50.860;13.664;2024-01-16T18:11:55;95837.50;;;-0.98;100.00
25130;BME280;13308;50.860;13.664;2024-01-16T18:14:22;95844.75;;;-1.05;100.00
25130;BME280;13308;50.860;13.664;2024-01-16T18:16:47;95847.03;;;-1.11;100.00
25130;BME280;13308;50.860;13.664;2024-01-16T18:19:16;95855.03;;;-1.18;100.00
25130;BME280;13308;50.860;13.664;2024-01-16T18:21:43;95847.66;;;-1.21;100.00
25130;BME280;13308;50.860;13.664;2024-01-16T18:24:09;95857.72;;;-1.21;100.00
25130;BME280;13308;50.860;13.664;2024-01-16T18:26:37;95859.63;;;-1.22;100.00
25130;BME280;13308;50.860;13.664;2024-01-16T18:29:05;95863.34;;;-1.33;100.00
25130;BME280;13308;50.860;13.664;2024-01-16T18:31:31;95869.88;;;-1.34;100.00
25130;BME280;13308;50.860;13.664;2024-01-16T18:33:56;95866.81;;;-1.33;100.00
25130;BME280;13308;50.860;13.664;2024-01-16T18:36:22;95871.06;;;-1.32;100.00
25130;BME280;13308;50.860;13.664;2024-01-16T18:38:48;95860.41;;;-1.47;100.00
25130;BME280;13308;50.860;13.664;2024-01-16T18:41:14;95855.91;;;-1.40;100.00
25130;BME280;13308;50.860;13.664;2024-01-16T18:43:40;95862.66;;;-1.53;100.00
25130;BME280;13308;50.860;13.664;2024-01-16T18:46:07;95873.84;;;-1.54;100.00
25130;BME280;13308;50.860;13.664;2024-01-16T18:48:34;95869.41;;;-1.66;100.00
25130;BME280;13308;50.860;13.664;2024-01-16T18:51:00;95872.47;;;-1.67;100.00
25130;BME280;13308;50.860;13.664;2024-01-16T18:53:26;95864.53;;;-1.83;100.00
25130;BME280;13308;50.860;13.664;2024-01-16T18:55:52;95859.72;;;-1.93;100.00
25130;BME280;13308;50.860;13.664;2024-01-16T18:58:18;95858.47;;;-1.99;100.00
25130;BME280;13308;50.860;13.664;2024-01-16T19:00:43;95850.66;;;-2.04;100.00
25130;BME280;13308;50.860;13.664;2024-01-16T19:03:10;95849.53;;;-2.03;100.00
25130;BME280;13308;50.860;13.664;2024-01-16T19:05:35;95859.31;;;-1.95;100.00
25130;BME280;13308;50.860;13.664;2024-01-16T19:11:37;95850.97;;;-2.09;100.00
25130;BME280;13308;50.860;13.664;2024-01-16T19:14:03;95846.66;;;-2.13;100.00
25130;BME280;13308;50.860;13.664;2024-01-16T19:16:29;95845.28;;;-2.26;100.00
25130;BME280;13308;50.860;13.664;2024-01-16T19:18:55;95843.59;;;-2.34;100.00
25130;BME280;13308;50.860;13.664;2024-01-16T19:21:21;95839.03;;;-2.30;100.00
25130;BME280;13308;50.860;13.664;2024-01-16T19:23:46;95846.06;;;-2.26;100.00
25130;BME280;13308;50.860;13.664;2024-01-16T19:26:12;95846.41;;;-2.27;100.00
25130;BME280;13308;50.860;13.664;2024-01-16T19:28:39;95841.25;;;-2.36;100.00
25130;BME280;13308;50.860;13.664;2024-01-16T19:31:04;95841.09;;;-2.46;100.00
25130;BME280;13308;50.860;13.664;2024-01-16T19:33:30;95838.78;;;-2.44;100.00
